sensor_id;sensor_type;location;lat;lon;timestamp;temperature;humidity
32217;DHT22;67098;51.140;4.088;2024-01-06T00:02:16;9.50;99.90
32217;DHT22;67098;51.140;4.088;2024-01-06T00:04:42;9.60;99.90
32217;DHT22;67098;51.140;4.088;2024-01-06T00:07:08;9.40;99.90
32217;DHT22;67098;51.140;4.088;2024-01-06T00:09:34;9.50;99.90
32217;DHT22;67098;51.140;4.088;2024-01-06T00:12:00;9.40;99.90
32217;DHT22;67098;51.140;4.088;2024-01-06T00:14:27;9.50;99.90
32217;DHT22;67098;51.140;4.088;2024-01-06T00:16:53;9.60;99.90
32217;DHT22;67098;51.140;4.088;2024-01-06T00:19:19;9.60;99.90
32217;DHT22;67098;51.140;4.088;2024-01-06T00:21:44;9.70;99.90
32217;DHT22;67098;51.140;4.088;2024-01-06T00:24:10;9.60;99.90
32217;DHT22;67098;51.140;4.088;2024-01-06T00:26:36;9.70;99.90
32217;DHT22;67098;51.140;4.088;2024-01-06T00:29:02;9.80;99.90
32217;DHT22;67098;51.140;4.088;2024-01-06T00:31:28;9.70;99.90
32217;DHT22;67098;51.140;4.088;2024-01-06T00:33:54;9.80;99.90
32217;DHT22;67098;51.140;4.088;2024-01-06T00:36:20;9.70;99.90
32217;DHT22;67098;51.140;4.088;2024-01-06T00:38:45;9.80;99.90
32217;DHT22;67098;51.140;4.088;2024-01-06T00:41:11;9.60;99.90
32217;DHT22;67098;51.140;4.088;2024-01-06T00:43:37;9.60;99.90
32217;DHT22;67098;51.140;4.088;2024-01-06T00:46:03;9.60;99.90
32217;DHT22;67098;51.140;4.088;2024-01-06T00:48:28;9.60;99.90
32217;DHT22;67098;51.140;4.088;2024-01-06T00:50:54;9.60;99.90
32217;DHT22;67098;51.140;4.088;2024-01-06T00:53:21;9.70;99.90
32217;DHT22;67098;51.140;4.088;2024-01-06T00:55:47;9.80;99.90
32217;DHT22;67098;51.140;4.088;2024-01-06T00:58:13;9.80;99.90
32217;DHT22;67098;51.140;4.088;2024-01-06T01:00:39;9.90;99.90
32217;DHT22;67098;51.140;4.088;2024-01-06T01:03:05;9.80;99.90
32217;DHT22;67098;51.140;4.088;2024-01-06T01:05:30;9.80;99.90
32217;DHT22;67098;51.140;4.088;2024-01-06T01:07:56;9.90;99.90
32217;DHT22;67098;51.140;4.088;2024-01-06T01:10:22;9.80;99.90
32217;DHT22;67098;51.140;4.088;2024-01-06T01:12:47;9.90;99.90
32217;DHT22;67098;51.140;4.088;2024-01-06T01:15:13;10.00;99.90
32217;DHT22;67098;51.140;4.088;2024-01-06T01:17:39;10.00;99.90
32217;DHT22;67098;51.140;4.088;2024-01-06T01:20:05;10.00;99.90
32217;DHT22;67098;51.140;4.088;2024-01-06T01:22:31;10.00;99.90
32217;DHT22;67098;51.140;4.088;2024-01-06T01:24:57;10.00;99.90
32217;DHT22;67098;51.140;4.088;2024-01-06T01:27:23;10.00;99.90
32217;DHT22;67098;51.140;4.088;2024-01-06T01:29:49;10.00;99.90
32217;DHT22;67098;51.140;4.088;2024-01-06T01:32:18;10.10;99.90
32217;DHT22;67098;51.140;4.088;2024-01-06T01:34:44;10.20;99.90
32217;DHT22;67098;51.140;4.088;2024-01-06T01:37:10;10.20;99.90
32217;DHT22;67098;51.140;4.088;2024-01-06T01:39:36;10.20;99.90
32217;DHT22;67098;51.140;4.088;2024-01-06T01:42:01;10.20;99.90
32217;DHT22;67098;51.140;4.088;2024-01-06T01:44:28;10.30;99.90
32217;DHT22;67098;51.140;4.088;2024-01-06T01:46:53;10.30;99.90
32217;DHT22;67098;51.140;4.088;2024-01-06T01:49:19;10.30;99.90
32217;DHT22;67098;51.140;4.088;2024-01-06T01:51:46;10.30;99.90
32217;DHT22;67098;51.140;4.088;2024-01-06T01:54:12;10.20;99.90
32217;DHT22;67098;51.140;4.088;2024-01-06T01:56:39;10.20;99.90
32217;DHT22;67098;51.140;4.088;2024-01-06T01:59:11;10.20;99.90
32217;DHT22;67098;51.140;4.088;2024-01-06T02:01:37;10.20;99.90
32217;DHT22;67098;51.140;4.088;2024-01-06T02:04:03;10.10;99.90
32217;DHT22;67098;51.140;4.088;2024-01-06T02:06:29;10.10;99.90
32217;DHT22;67098;51.140;4.088;2024-01-06T02:08:55;10.00;99.90
32217;DHT22;67098;51.140;4.088;2024-01-06T02:11:21;10.00;99.90
32217;DHT22;67098;51.140;4.088;2024-01-06T02:13:46;10.10;99.90
32217;DHT22;67098;51.140;4.088;2024-01-06T02:16:12;10.10;99.90
32217;DHT22;67098;51.140;4.088;2024-01-06T02:18:38;10.20;99.90
32217;DHT22;67098;51.140;4.088;2024-01-06T02:21:06;10.20;99.90
32217;DHT22;67098;51.140;4.088;2024-01-06T02:23:35;10.20;99.90
32217;DHT22;67098;51.140;4.088;2024-01-06T02:26:01;10.30;99.90
32217;DHT22;67098;51.140;4.088;2024-01-06T02:28:27;10.20;99.90
32217;DHT22;67098;51.140;4.088;2024-01-06T02:30:53;10.20;99.90
32217;DHT22;67098;51.140;4.088;2024-01-06T02:33:19;10.20;99.90
32217;DHT22;67098;51.140;4.088;2024-01-06T02:35:48;10.20;99.90
32217;DHT22;67098;51.140;4.088;2024-01-06T02:38:13;10.30;99.90
32217;DHT22;67098;51.140;4.088;2024-01-06T02:40:39;10.30;99.90
32217;DHT22;67098;51.140;4.088;2024-01-06T02:43:05;10.30;99.90
32217;DHT22;67098;51.140;4.088;2024-01-06T02:45:31;10.20;99.90
32217;DHT22;67098;51.140;4.088;2024-01-06T02:47:56;10.10;99.90
32217;DHT22;67098;51.140;4.088;2024-01-06T02:50:22;10.20;99.90
32217;DHT22;67098;51.140;4.088;2024-01-06T02:52:48;10.30;99.90
32217;DHT22;67098;51.140;4.088;2024-01-06T02:55:14;10.30;99.90
32217;DHT22;67098;51.140;4.088;2024-01-06T02:57:40;10.30;99.90
32217;DHT22;67098;51.140;4.088;2024-01-06T03:00:07;10.30;99.90
32217;DHT22;67098;51.140;4.088;2024-01-06T03:02:33;10.40;99.90
32217;DHT22;67098;51.140;4.088;2024-01-06T03:05:01;10.40;99.90
32217;DHT22;67098;51.140;4.088;2024-01-06T03:07:27;10.50;99.90
32217;DHT22;67098;51.140;4.088;2024-01-06T03:09:53;10.40;99.90
32217;DHT22;67098;51.140;4.088;2024-01-06T03:12:19;10.50;99.90
32217;DHT22;67098;51.140;4.088;2024-01-06T03:14:44;10.50;99.90
32217;DHT22;67098;51.140;4.088;2024-01-06T03:17:11;10.40;99.90
32217;DHT22;67098;51.140;4.088;2024-01-06T03:19:38;10.50;99.90
32217;DHT22;67098;51.140;4.088;2024-01-06T03:22:04;10.50;99.90
32217;DHT22;67098;51.140;4.088;2024-01-06T03:24:30;10.50;99.90
32217;DHT22;67098;51.140;4.088;2024-01-06T03:26:57;10.50;99.90
32217;DHT22;67098;51.140;4.088;2024-01-06T03:29:22;10.50;99.90
32217;DHT22;67098;51.140;4.088;2024-01-06T03:31:48;10.50;99.90
32217;DHT22;67098;51.140;4.088;2024-01-06T03:34:14;10.50;99.90
32217;DHT22;67098;51.140;4.088;2024-01-06T03:36:40;10.50;99.90
32217;DHT22;67098;51.140;4.088;2024-01-06T03:39:07;10.40;99.90
32217;DHT22;67098;51.140;4.088;2024-01-06T03:41:33;10.40;99.90
32217;DHT22;67098;51.140;4.088;2024-01-06T03:43:59;10.50;99.90
32217;DHT22;67098;51.140;4.088;2024-01-06T03:46:25;10.50;99.90
32217;DHT22;67098;51.140;4.088;2024-01-06T03:48:50;10.50;99.90
32217;DHT22;67098;51.140;4.088;2024-01-06T03:51:16;10.40;99.90
32217;DHT22;67098;51.140;4.088;2024-01-06T03:53:42;10.40;99.90
32217;DHT22;67098;51.140;4.088;2024-01-06T03:56:08;10.40;99.90
32217;DHT22;67098;51.140;4.088;2024-01-06T03:58:34;10.50;99.90
32217;DHT22;67098;51.140;4.088;2024-01-06T04:01:00;10.50;99.90
32217;DHT22;67098;51.140;4.088;2024-01-06T04:03:26;10.50;99.90
32217;DHT22;67098;51.140;4.088;2024-01-06T04:05:52;10.50;99.90
32217;DHT22;67098;51.140;4.088;2024-01-06T04:08:18;10.50;99.90
32217;DHT22;67098;51.140;4.088;2024-01-06T04:10:44;10.50;99.90
32217;DHT22;67098;51.140;4.088;2024-01-06T04:13:11;10.50;99.90
32217;DHT22;67098;51.140;4.088;2024-01-06T04:15:37;10.50;99.90
32217;DHT22;67098;51.140;4.088;2024-01-06T04:18:05;10.50;99.90
32217;DHT22;67098;51.140;4.088;2024-01-06T04:20:32;10.60;99.90
32217;DHT22;67098;51.140;4.088;2024-01-06T04:22:59;10.60;99.90
32217;DHT22;67098;51.140;4.088;2024-01-06T04:25:25;10.60;99.90
32217;DHT22;67098;51.140;4.088;2024-01-06T04:27:51;10.60;99.90
32217;DHT22;67098;51.140;4.088;2024-01-06T04:30:17;10.60;99.90
32217;DHT22;67098;51.140;4.088;2024-01-06T04:32:43;10.50;99.90
32217;DHT22;67098;51.140;4.088;2024-01-06T04:35:10;10.50;99.90
32217;DHT22;67098;51.140;4.088;2024-01-06T04:37:35;10.40;99.90
32217;DHT22;67098;51.140;4.088;2024-01-06T04:40:02;10.40;99.90
32217;DHT22;67098;51.140;4.088;2024-01-06T04:42:28;10.40;99.90
32217;DHT22;67098;51.140;4.088;2024-01-06T04:44:54;10.40;99.90
32217;DHT22;67098;51.140;4.088;2024-01-06T04:47:19;10.30;99.90
32217;DHT22;67098;51.140;4.088;2024-01-06T04:49:45;10.30;99.90
32217;DHT22;67098;51.140;4.088;2024-01-06T04:52:11;10.30;99.90
32217;DHT22;67098;51.140;4.088;2024-01-06T04:54:37;10.20;99.90
32217;DHT22;67098;51.140;4.088;2024-01-06T04:57:03;10.20;99.90
32217;DHT22;67098;51.140;4.088;2024-01-06T04:59:30;10.20;99.90
32217;DHT22;67098;51.140;4.088;2024-01-06T05:01:57;10.30;99.90
32217;DHT22;67098;51.140;4.088;2024-01-06T05:04:23;10.20;99.90
32217;DHT22;67098;51.140;4.088;2024-01-06T05:06:49;10.10;99.90
32217;DHT22;67098;51.140;4.088;2024-01-06T05:09:15;10.00;99.90
32217;DHT22;67098;51.140;4.088;2024-01-06T05:11:43;10.00;99.90
32217;DHT22;67098;51.140;4.088;2024-01-06T05:14:09;10.00;99.90
32217;DHT22;67098;51.140;4.088;2024-01-06T05:16:35;10.00;99.90
32217;DHT22;67098;51.140;4.088;2024-01-06T05:19:01;10.00;99.90
32217;DHT22;67098;51.140;4.088;2024-01-06T05:21:27;10.00;99.90
32217;DHT22;67098;51.140;4.088;2024-01-06T05:23:53;10.10;99.90
32217;DHT22;67098;51.140;4.088;2024-01-06T05:26:18;10.10;99.90
32217;DHT22;67098;51.140;4.088;2024-01-06T05:28:44;10.10;99.90
32217;DHT22;67098;51.140;4.088;2024-01-06T05:31:10;10.10;99.90
32217;DHT22;67098;51.140;4.088;2024-01-06T05:33:36;10.00;99.90
32217;DHT22;67098;51.140;4.088;2024-01-06T05:36:02;10.00;99.90
32217;DHT22;67098;51.140;4.088;2024-01-06T05:38:28;10.00;99.90
32217;DHT22;67098;51.140;4.088;2024-01-06T05:40:53;10.00;99.90
32217;DHT22;67098;51.140;4.088;2024-01-06T05:43:19;10.00;99.90
32217;DHT22;67098;51.140;4.088;2024-01-06T05:45:45;10.00;99.90
32217;DHT22;67098;51.140;4.088;2024-01-06T05:48:11;10.00;99.90
32217;DHT22;67098;51.140;4.088;2024-01-06T05:50:38;10.00;99.90
32217;DHT22;67098;51.140;4.088;2024-01-06T05:53:05;10.00;99.90
32217;DHT22;67098;51.140;4.088;2024-01-06T05:55:31;9.90;99.90
32217;DHT22;67098;51.140;4.088;2024-01-06T05:57:57;9.80;99.90
32217;DHT22;67098;51.140;4.088;2024-01-06T06:00:22;9.70;99.90
32217;DHT22;67098;51.140;4.088;2024-01-06T06:02:48;9.60;99.90
32217;DHT22;67098;51.140;4.088;2024-01-06T06:05:14;9.50;99.90
32217;DHT22;67098;51.140;4.088;2024-01-06T06:07:40;9.50;99.90
32217;DHT22;67098;51.140;4.088;2024-01-06T06:10:09;9.50;99.90
32217;DHT22;67098;51.140;4.088;2024-01-06T06:12:36;9.50;99.90
32217;DHT22;67098;51.140;4.088;2024-01-06T06:15:03;9.50;99.90
32217;DHT22;67098;51.140;4.088;2024-01-06T06:17:33;9.50;99.90
32217;DHT22;67098;51.140;4.088;2024-01-06T06:19:59;9.40;99.90
32217;DHT22;67098;51.140;4.088;2024-01-06T06:22:28;9.40;99.90
32217;DHT22;67098;51.140;4.088;2024-01-06T06:24:59;9.50;99.90
32217;DHT22;67098;51.140;4.088;2024-01-06T06:27:26;9.50;99.90
32217;DHT22;67098;51.140;4.088;2024-01-06T06:29:55;9.50;99.90
32217;DHT22;67098;51.140;4.088;2024-01-06T06:32:23;9.50;99.90
32217;DHT22;67098;51.140;4.088;2024-01-06T06:34:50;9.50;99.90
32217;DHT22;67098;51.140;4.088;2024-01-06T06:37:16;9.40;99.90
32217;DHT22;67098;51.140;4.088;2024-01-06T06:39:42;9.50;99.90
32217;DHT22;67098;51.140;4.088;2024-01-06T06:42:10;9.50;99.90
32217;DHT22;67098;51.140;4.088;2024-01-06T06:44:36;9.50;99.90
32217;DHT22;67098;51.140;4.088;2024-01-06T06:47:02;9.50;99.90
32217;DHT22;67098;51.140;4.088;2024-01-06T06:49:28;9.50;99.90
32217;DHT22;67098;51.140;4.088;2024-01-06T06:51:53;9.50;99.90
32217;DHT22;67098;51.140;4.088;2024-01-06T06:54:21;9.40;99.90
32217;DHT22;67098;51.140;4.088;2024-01-06T06:56:47;9.40;99.90
32217;DHT22;67098;51.140;4.088;2024-01-06T06:59:13;9.40;99.90
32217;DHT22;67098;51.140;4.088;2024-01-06T07:01:39;9.40;99.90
32217;DHT22;67098;51.140;4.088;2024-01-06T07:04:05;9.30;99.90
32217;DHT22;67098;51.140;4.088;2024-01-06T07:06:31;9.30;99.90
32217;DHT22;67098;51.140;4.088;2024-01-06T07:08:57;9.30;99.90
32217;DHT22;67098;51.140;4.088;2024-01-06T07:11:23;9.30;99.90
32217;DHT22;67098;51.140;4.088;2024-01-06T07:13:49;9.30;99.90
32217;DHT22;67098;51.140;4.088;2024-01-06T07:16:15;9.30;99.90
32217;DHT22;67098;51.140;4.088;2024-01-06T07:18:41;9.40;99.90
32217;DHT22;67098;51.140;4.088;2024-01-06T07:21:07;9.40;99.90
32217;DHT22;67098;51.140;4.088;2024-01-06T07:23:33;9.40;99.90
32217;DHT22;67098;51.140;4.088;2024-01-06T07:25:59;9.40;99.90
32217;DHT22;67098;51.140;4.088;2024-01-06T07:28:26;9.40;99.90
32217;DHT22;67098;51.140;4.088;2024-01-06T07:30:51;9.30;99.90
32217;DHT22;67098;51.140;4.088;2024-01-06T07:33:17;9.30;99.90
32217;DHT22;67098;51.140;4.088;2024-01-06T07:35:43;9.40;99.90
32217;DHT22;67098;51.140;4.088;2024-01-06T07:38:09;9.40;99.90
32217;DHT22;67098;51.140;4.088;2024-01-06T07:40:36;9.50;99.90
32217;DHT22;67098;51.140;4.088;2024-01-06T07:43:02;9.40;99.90
32217;DHT22;67098;51.140;4.088;2024-01-06T07:45:28;9.40;99.90
32217;DHT22;67098;51.140;4.088;2024-01-06T07:47:53;9.40;99.90
32217;DHT22;67098;51.140;4.088;2024-01-06T07:50:19;9.40;99.90
32217;DHT22;67098;51.140;4.088;2024-01-06T07:52:45;9.40;99.90
32217;DHT22;67098;51.140;4.088;2024-01-06T07:55:11;9.30;99.90
32217;DHT22;67098;51.140;4.088;2024-01-06T07:57:37;9.30;99.90
32217;DHT22;67098;51.140;4.088;2024-01-06T08:00:03;9.10;99.90
32217;DHT22;67098;51.140;4.088;2024-01-06T08:02:28;9.10;99.90
32217;DHT22;67098;51.140;4.088;2024-01-06T08:04:54;9.10;99.90
32217;DHT22;67098;51.140;4.088;2024-01-06T08:07:22;9.10;99.90
32217;DHT22;67098;51.140;4.088;2024-01-06T08:09:48;9.10;99.90
32217;DHT22;67098;51.140;4.088;2024-01-06T08:12:15;9.10;99.90
32217;DHT22;67098;51.140;4.088;2024-01-06T08:14:40;9.10;99.90
32217;DHT22;67098;51.140;4.088;2024-01-06T08:17:06;9.10;99.90
32217;DHT22;67098;51.140;4.088;2024-01-06T08:19:32;9.00;99.90
32217;DHT22;67098;51.140;4.088;2024-01-06T08:22:00;9.00;99.90
32217;DHT22;67098;51.140;4.088;2024-01-06T08:24:26;9.10;99.90
32217;DHT22;67098;51.140;4.088;2024-01-06T08:26:52;9.10;99.90
32217;DHT22;67098;51.140;4.088;2024-01-06T08:29:18;9.10;99.90
32217;DHT22;67098;51.140;4.088;2024-01-06T08:31:45;9.00;99.90
32217;DHT22;67098;51.140;4.088;2024-01-06T08:34:11;9.00;99.90
32217;DHT22;67098;51.140;4.088;2024-01-06T08:36:37;9.00;99.90
32217;DHT22;67098;51.140;4.088;2024-01-06T08:39:03;9.00;99.90
32217;DHT22;67098;51.140;4.088;2024-01-06T08:41:29;9.00;99.90
32217;DHT22;67098;51.140;4.088;2024-01-06T08:43:55;8.90;99.90
32217;DHT22;67098;51.140;4.088;2024-01-06T08:46:20;8.80;99.90
32217;DHT22;67098;51.140;4.088;2024-01-06T08:48:46;8.80;99.90
32217;DHT22;67098;51.140;4.088;2024-01-06T08:51:12;8.80;99.90
32217;DHT22;67098;51.140;4.088;2024-01-06T08:53:38;8.80;99.90
32217;DHT22;67098;51.140;4.088;2024-01-06T08:56:03;8.80;99.90
32217;DHT22;67098;51.140;4.088;2024-01-06T08:58:29;8.80;99.90
32217;DHT22;67098;51.140;4.088;2024-01-06T09:00:55;8.80;99.90
32217;DHT22;67098;51.140;4.088;2024-01-06T09:03:21;8.80;99.90
32217;DHT22;67098;51.140;4.088;2024-01-06T09:05:52;8.80;99.90
32217;DHT22;67098;51.140;4.088;2024-01-06T09:08:18;8.80;99.90
32217;DHT22;67098;51.140;4.088;2024-01-06T09:10:44;8.80;99.90
32217;DHT22;67098;51.140;4.088;2024-01-06T09:13:10;8.70;99.90
32217;DHT22;67098;51.140;4.088;2024-01-06T09:15:36;8.60;99.90
32217;DHT22;67098;51.140;4.088;2024-01-06T09:18:01;8.50;99.90
32217;DHT22;67098;51.140;4.088;2024-01-06T09:20:28;8.60;99.90
32217;DHT22;67098;51.140;4.088;2024-01-06T09:22:54;8.60;99.90
32217;DHT22;67098;51.140;4.088;2024-01-06T09:25:20;8.50;99.90
32217;DHT22;67098;51.140;4.088;2024-01-06T09:27:48;8.50;99.90
32217;DHT22;67098;51.140;4.088;2024-01-06T09:30:14;8.40;99.90
32217;DHT22;67098;51.140;4.088;2024-01-06T09:32:40;8.50;99.90
32217;DHT22;67098;51.140;4.088;2024-01-06T09:35:06;8.60;99.90
32217;DHT22;67098;51.140;4.088;2024-01-06T09:37:32;8.70;99.90
32217;DHT22;67098;51.140;4.088;2024-01-06T09:39:57;8.80;99.90
32217;DHT22;67098;51.140;4.088;2024-01-06T09:42:24;8.80;99.90
32217;DHT22;67098;51.140;4.088;2024-01-06T09:44:50;8.80;99.90
32217;DHT22;67098;51.140;4.088;2024-01-06T09:47:18;8.80;99.90
32217;DHT22;67098;51.140;4.088;2024-01-06T09:49:49;8.80;99.90
32217;DHT22;67098;51.140;4.088;2024-01-06T09:52:21;8.80;99.90
32217;DHT22;67098;51.140;4.088;2024-01-06T09:54:56;8.70;99.90
32217;DHT22;67098;51.140;4.088;2024-01-06T09:57:23;8.70;99.90
32217;DHT22;67098;51.140;4.088;2024-01-06T09:59:48;8.70;99.90
32217;DHT22;67098;51.140;4.088;2024-01-06T10:02:15;8.60;99.90
32217;DHT22;67098;51.140;4.088;2024-01-06T10:04:43;8.70;99.90
32217;DHT22;67098;51.140;4.088;2024-01-06T10:07:10;8.80;99.90
32217;DHT22;67098;51.140;4.088;2024-01-06T10:09:39;8.80;99.90
32217;DHT22;67098;51.140;4.088;2024-01-06T10:12:05;8.80;99.90
32217;DHT22;67098;51.140;4.088;2024-01-06T10:14:31;8.80;99.90
32217;DHT22;67098;51.140;4.088;2024-01-06T10:16:57;8.80;99.90
32217;DHT22;67098;51.140;4.088;2024-01-06T10:19:23;8.70;99.90
32217;DHT22;67098;51.140;4.088;2024-01-06T10:21:49;8.80;99.90
32217;DHT22;67098;51.140;4.088;2024-01-06T10:24:18;8.80;99.90
32217;DHT22;67098;51.140;4.088;2024-01-06T10:26:47;8.80;99.90
32217;DHT22;67098;51.140;4.088;2024-01-06T10:29:15;8.80;99.90
32217;DHT22;67098;51.140;4.088;2024-01-06T10:31:41;8.70;99.90
32217;DHT22;67098;51.140;4.088;2024-01-06T10:34:07;8.80;99.90
32217;DHT22;67098;51.140;4.088;2024-01-06T10:36:33;8.80;99.90
32217;DHT22;67098;51.140;4.088;2024-01-06T10:38:58;8.70;99.90
32217;DHT22;67098;51.140;4.088;2024-01-06T10:41:24;8.80;99.90
32217;DHT22;67098;51.140;4.088;2024-01-06T10:43:51;8.80;99.90
32217;DHT22;67098;51.140;4.088;2024-01-06T10:46:19;8.80;99.90
32217;DHT22;67098;51.140;4.088;2024-01-06T10:48:46;8.70;99.90
32217;DHT22;67098;51.140;4.088;2024-01-06T10:51:13;8.80;99.90
32217;DHT22;67098;51.140;4.088;2024-01-06T10:53:41;8.80;99.90
32217;DHT22;67098;51.140;4.088;2024-01-06T10:56:07;8.70;99.90
32217;DHT22;67098;51.140;4.088;2024-01-06T10:58:35;8.80;99.90
32217;DHT22;67098;51.140;4.088;2024-01-06T11:01:21;8.90;99.90
32217;DHT22;67098;51.140;4.088;2024-01-06T11:03:48;8.70;99.90
32217;DHT22;67098;51.140;4.088;2024-01-06T11:06:15;8.70;99.90
32217;DHT22;67098;51.140;4.088;2024-01-06T11:08:54;8.80;99.90
32217;DHT22;67098;51.140;4.088;2024-01-06T11:11:23;8.80;99.90
32217;DHT22;67098;51.140;4.088;2024-01-06T11:13:49;8.90;99.90
32217;DHT22;67098;51.140;4.088;2024-01-06T11:16:34;9.00;99.90
32217;DHT22;67098;51.140;4.088;2024-01-06T11:19:00;9.10;99.90
32217;DHT22;67098;51.140;4.088;2024-01-06T11:21:26;9.20;99.90
32217;DHT22;67098;51.140;4.088;2024-01-06T11:26:44;9.30;99.90
32217;DHT22;67098;51.140;4.088;2024-01-06T11:29:10;9.20;99.90
32217;DHT22;67098;51.140;4.088;2024-01-06T11:31:37;9.30;99.90
32217;DHT22;67098;51.140;4.088;2024-01-06T11:34:16;9.40;99.70
32217;DHT22;67098;51.140;4.088;2024-01-06T11:36:47;9.50;99.70
32217;DHT22;67098;51.140;4.088;2024-01-06T11:39:36;9.50;99.70
32217;DHT22;67098;51.140;4.088;2024-01-06T11:42:05;9.50;99.40
32217;DHT22;67098;51.140;4.088;2024-01-06T11:44:34;9.50;99.50
32217;DHT22;67098;51.140;4.088;2024-01-06T11:47:01;9.60;99.30
32217;DHT22;67098;51.140;4.088;2024-01-06T11:49:28;9.70;99.30
32217;DHT22;67098;51.140;4.088;2024-01-06T11:51:55;9.70;99.50
32217;DHT22;67098;51.140;4.088;2024-01-06T11:54:21;9.80;99.20
32217;DHT22;67098;51.140;4.088;2024-01-06T11:56:48;9.90;99.10
32217;DHT22;67098;51.140;4.088;2024-01-06T11:59:13;9.90;98.80
32217;DHT22;67098;51.140;4.088;2024-01-06T12:01:39;9.90;98.80
32217;DHT22;67098;51.140;4.088;2024-01-06T12:04:06;9.80;98.70
32217;DHT22;67098;51.140;4.088;2024-01-06T12:06:34;9.30;99.20
32217;DHT22;67098;51.140;4.088;2024-01-06T12:09:05;9.20;99.60
32217;DHT22;67098;51.140;4.088;2024-01-06T12:11:31;9.10;99.60
32217;DHT22;67098;51.140;4.088;2024-01-06T12:13:56;9.20;99.50
32217;DHT22;67098;51.140;4.088;2024-01-06T12:16:23;9.30;99.30
32217;DHT22;67098;51.140;4.088;2024-01-06T12:18:55;9.30;99.30
32217;DHT22;67098;51.140;4.088;2024-01-06T12:21:23;9.30;99.10
32217;DHT22;67098;51.140;4.088;2024-01-06T12:23:49;9.50;98.40
32217;DHT22;67098;51.140;4.088;2024-01-06T12:26:17;9.50;98.60
32217;DHT22;67098;51.140;4.088;2024-01-06T12:28:46;9.50;98.50
32217;DHT22;67098;51.140;4.088;2024-01-06T12:31:12;9.40;98.70
32217;DHT22;67098;51.140;4.088;2024-01-06T12:33:41;9.40;98.70
32217;DHT22;67098;51.140;4.088;2024-01-06T12:36:07;9.30;98.90
32217;DHT22;67098;51.140;4.088;2024-01-06T12:38:42;9.10;98.50
32217;DHT22;67098;51.140;4.088;2024-01-06T12:41:08;9.00;98.40
32217;DHT22;67098;51.140;4.088;2024-01-06T12:43:33;9.10;98.60
32217;DHT22;67098;51.140;4.088;2024-01-06T12:45:59;9.40;98.60
32217;DHT22;67098;51.140;4.088;2024-01-06T12:48:25;9.40;98.40
32217;DHT22;67098;51.140;4.088;2024-01-06T12:50:51;9.40;98.30
32217;DHT22;67098;51.140;4.088;2024-01-06T12:53:16;9.30;98.00
32217;DHT22;67098;51.140;4.088;2024-01-06T12:55:46;8.90;98.80
32217;DHT22;67098;51.140;4.088;2024-01-06T12:58:12;8.90;98.80
32217;DHT22;67098;51.140;4.088;2024-01-06T13:00:38;8.80;98.30
32217;DHT22;67098;51.140;4.088;2024-01-06T13:03:05;8.70;98.20
32217;DHT22;67098;51.140;4.088;2024-01-06T13:05:31;8.80;98.20
32217;DHT22;67098;51.140;4.088;2024-01-06T13:07:57;8.80;98.40
32217;DHT22;67098;51.140;4.088;2024-01-06T13:10:23;8.80;98.10
32217;DHT22;67098;51.140;4.088;2024-01-06T13:12:49;9.00;98.10
32217;DHT22;67098;51.140;4.088;2024-01-06T13:15:15;9.00;98.00
32217;DHT22;67098;51.140;4.088;2024-01-06T13:17:41;8.80;98.40
32217;DHT22;67098;51.140;4.088;2024-01-06T13:20:08;8.70;98.10
32217;DHT22;67098;51.140;4.088;2024-01-06T13:22:34;8.80;98.00
32217;DHT22;67098;51.140;4.088;2024-01-06T13:24:59;8.70;97.90
32217;DHT22;67098;51.140;4.088;2024-01-06T13:27:26;8.70;97.90
32217;DHT22;67098;51.140;4.088;2024-01-06T13:29:54;8.70;97.80
32217;DHT22;67098;51.140;4.088;2024-01-06T13:32:20;8.80;97.60
32217;DHT22;67098;51.140;4.088;2024-01-06T13:34:47;8.80;97.50
32217;DHT22;67098;51.140;4.088;2024-01-06T13:37:13;8.70;97.60
32217;DHT22;67098;51.140;4.088;2024-01-06T13:39:39;8.60;98.20
32217;DHT22;67098;51.140;4.088;2024-01-06T13:42:05;8.80;97.90
32217;DHT22;67098;51.140;4.088;2024-01-06T13:44:31;8.80;97.60
32217;DHT22;67098;51.140;4.088;2024-01-06T13:46:56;8.90;97.50
32217;DHT22;67098;51.140;4.088;2024-01-06T13:49:22;8.90;97.60
32217;DHT22;67098;51.140;4.088;2024-01-06T13:51:49;9.10;97.60
32217;DHT22;67098;51.140;4.088;2024-01-06T13:54:16;9.00;97.60
32217;DHT22;67098;51.140;4.088;2024-01-06T13:56:41;9.10;97.80
32217;DHT22;67098;51.140;4.088;2024-01-06T13:59:07;9.20;97.50
32217;DHT22;67098;51.140;4.088;2024-01-06T14:01:34;9.20;97.40
32217;DHT22;67098;51.140;4.088;2024-01-06T14:04:00;9.30;97.30
32217;DHT22;67098;51.140;4.088;2024-01-06T14:06:27;9.30;97.30
32217;DHT22;67098;51.140;4.088;2024-01-06T14:08:59;9.20;97.20
32217;DHT22;67098;51.140;4.088;2024-01-06T14:11:28;9.20;97.10
32217;DHT22;67098;51.140;4.088;2024-01-06T14:13:59;9.00;97.70
32217;DHT22;67098;51.140;4.088;2024-01-06T14:16:26;9.10;97.60
32217;DHT22;67098;51.140;4.088;2024-01-06T14:18:52;9.20;97.80
32217;DHT22;67098;51.140;4.088;2024-01-06T14:21:18;9.20;97.80
32217;DHT22;67098;51.140;4.088;2024-01-06T14:23:45;9.30;97.50
32217;DHT22;67098;51.140;4.088;2024-01-06T14:26:11;9.20;97.80
32217;DHT22;67098;51.140;4.088;2024-01-06T14:28:37;9.20;97.70
32217;DHT22;67098;51.140;4.088;2024-01-06T14:31:03;9.30;97.70
32217;DHT22;67098;51.140;4.088;2024-01-06T14:33:29;9.30;97.70
32217;DHT22;67098;51.140;4.088;2024-01-06T14:35:55;9.20;97.90
32217;DHT22;67098;51.140;4.088;2024-01-06T14:38:20;9.20;97.90
32217;DHT22;67098;51.140;4.088;2024-01-06T14:40:46;9.20;98.00
32217;DHT22;67098;51.140;4.088;2024-01-06T14:43:12;9.20;98.00
32217;DHT22;67098;51.140;4.088;2024-01-06T14:45:38;9.00;98.30
32217;DHT22;67098;51.140;4.088;2024-01-06T14:48:04;8.90;98.50
32217;DHT22;67098;51.140;4.088;2024-01-06T14:50:30;8.90;98.50
32217;DHT22;67098;51.140;4.088;2024-01-06T14:52:56;8.90;98.50
32217;DHT22;67098;51.140;4.088;2024-01-06T14:55:21;8.90;98.80
32217;DHT22;67098;51.140;4.088;2024-01-06T14:57:47;8.90;98.80
32217;DHT22;67098;51.140;4.088;2024-01-06T15:00:13;8.90;98.60
32217;DHT22;67098;51.140;4.088;2024-01-06T15:02:39;8.80;98.80
32217;DHT22;67098;51.140;4.088;2024-01-06T15:05:06;8.80;98.90
32217;DHT22;67098;51.140;4.088;2024-01-06T15:07:32;8.90;98.90
32217;DHT22;67098;51.140;4.088;2024-01-06T15:10:00;8.80;99.20
32217;DHT22;67098;51.140;4.088;2024-01-06T15:12:27;8.70;99.20
32217;DHT22;67098;51.140;4.088;2024-01-06T15:14:53;8.80;99.30
32217;DHT22;67098;51.140;4.088;2024-01-06T15:17:19;8.80;99.10
32217;DHT22;67098;51.140;4.088;2024-01-06T15:19:45;8.70;99.50
32217;DHT22;67098;51.140;4.088;2024-01-06T15:22:11;8.70;99.40
32217;DHT22;67098;51.140;4.088;2024-01-06T15:24:39;8.70;99.60
32217;DHT22;67098;51.140;4.088;2024-01-06T15:27:05;8.70;99.50
32217;DHT22;67098;51.140;4.088;2024-01-06T15:29:31;8.80;99.50
32217;DHT22;67098;51.140;4.088;2024-01-06T15:31:57;8.80;99.30
32217;DHT22;67098;51.140;4.088;2024-01-06T15:34:23;8.80;99.20
32217;DHT22;67098;51.140;4.088;2024-01-06T15:36:50;8.80;99.00
32217;DHT22;67098;51.140;4.088;2024-01-06T15:39:15;8.80;98.90
32217;DHT22;67098;51.140;4.088;2024-01-06T15:41:41;8.70;99.00